sensor_id;sensor_type;location;lat;lon;timestamp;P1;durP1;ratioP1;P2;durP2;ratioP2
21743;SDS011;11034;48.556;9.342;2024-02-21T00:00:26;10.57;;;2.63;;
21743;SDS011;11034;48.556;9.342;2024-02-21T00:02:56;8.27;;;2.78;;
21743;SDS011;11034;48.556;9.342;2024-02-21T00:05:26;12.00;;;2.58;;
21743;SDS011;11034;48.556;9.342;2024-02-21T00:07:55;6.40;;;2.53;;
21743;SDS011;11034;48.556;9.342;2024-02-21T00:10:23;7.93;;;2.67;;
21743;SDS011;11034;48.556;9.342;2024-02-21T00:12:51;10.35;;;3.08;;
21743;SDS011;11034;48.556;9.342;2024-02-21T00:15:19;7.93;;;2.75;;
21743;SDS011;11034;48.556;9.342;2024-02-21T00:17:47;8.60;;;2.75;;
21743;SDS011;11034;48.556;9.342;2024-02-21T00:20:17;8.93;;;2.78;;
21743;SDS011;11034;48.556;9.342;2024-02-21T00:22:46;14.45;;;3.22;;
21743;SDS011;11034;48.556;9.342;2024-02-21T00:25:14;11.73;;;2.90;;
21743;SDS011;11034;48.556;9.342;2024-02-21T00:27:42;11.32;;;2.80;;
21743;SDS011;11034;48.556;9.342;2024-02-21T00:30:11;11.27;;;2.85;;
21743;SDS011;11034;48.556;9.342;2024-02-21T00:32:40;10.88;;;3.17;;
21743;SDS011;11034;48.556;9.342;2024-02-21T00:35:08;9.27;;;2.63;;
21743;SDS011;11034;48.556;9.342;2024-02-21T00:37:37;7.95;;;2.97;;
21743;SDS011;11034;48.556;9.342;2024-02-21T00:40:07;11.68;;;2.78;;
21743;SDS011;11034;48.556;9.342;2024-02-21T00:42:35;9.43;;;2.78;;
21743;SDS011;11034;48.556;9.342;2024-02-21T00:45:04;9.98;;;2.75;;
21743;SDS011;11034;48.556;9.342;2024-02-21T00:47:33;9.07;;;2.63;;
21743;SDS011;11034;48.556;9.342;2024-02-21T00:50:03;11.70;;;3.47;;
21743;SDS011;11034;48.556;9.342;2024-02-21T00:52:35;11.00;;;2.70;;
21743;SDS011;11034;48.556;9.342;2024-02-21T00:55:05;7.22;;;2.47;;
21743;SDS011;11034;48.556;9.342;2024-02-21T00:57:35;11.05;;;2.80;;
21743;SDS011;11034;48.556;9.342;2024-02-21T01:00:04;11.57;;;2.97;;
21743;SDS011;11034;48.556;9.342;2024-02-21T01:02:34;8.32;;;2.70;;
21743;SDS011;11034;48.556;9.342;2024-02-21T01:05:02;11.38;;;2.50;;
21743;SDS011;11034;48.556;9.342;2024-02-21T01:07:31;14.60;;;3.00;;
21743;SDS011;11034;48.556;9.342;2024-02-21T01:10:01;12.70;;;2.95;;
21743;SDS011;11034;48.556;9.342;2024-02-21T01:12:29;7.53;;;2.58;;
21743;SDS011;11034;48.556;9.342;2024-02-21T01:14:57;11.10;;;2.50;;
21743;SDS011;11034;48.556;9.342;2024-02-21T01:17:25;9.88;;;2.67;;
21743;SDS011;11034;48.556;9.342;2024-02-21T01:19:53;9.27;;;2.65;;
21743;SDS011;11034;48.556;9.342;2024-02-21T01:22:21;11.70;;;3.20;;
21743;SDS011;11034;48.556;9.342;2024-02-21T01:24:49;10.88;;;2.92;;
21743;SDS011;11034;48.556;9.342;2024-02-21T01:27:19;12.50;;;2.67;;
21743;SDS011;11034;48.556;9.342;2024-02-21T01:29:47;10.38;;;3.00;;
21743;SDS011;11034;48.556;9.342;2024-02-21T01:32:16;9.68;;;2.88;;
21743;SDS011;11034;48.556;9.342;2024-02-21T01:34:44;7.38;;;2.35;;
21743;SDS011;11034;48.556;9.342;2024-02-21T01:37:12;11.68;;;2.95;;
21743;SDS011;11034;48.556;9.342;2024-02-21T01:39:40;10.27;;;2.83;;
21743;SDS011;11034;48.556;9.342;2024-02-21T01:42:08;11.80;;;2.85;;
21743;SDS011;11034;48.556;9.342;2024-02-21T01:44:37;9.68;;;2.70;;
21743;SDS011;11034;48.556;9.342;2024-02-21T01:47:06;11.55;;;3.00;;
21743;SDS011;11034;48.556;9.342;2024-02-21T01:49:34;9.27;;;2.65;;
21743;SDS011;11034;48.556;9.342;2024-02-21T01:52:02;10.20;;;2.78;;
21743;SDS011;11034;48.556;9.342;2024-02-21T01:54:31;9.15;;;2.20;;
21743;SDS011;11034;48.556;9.342;2024-02-21T01:56:59;11.10;;;2.70;;
21743;SDS011;11034;48.556;9.342;2024-02-21T01:59:28;12.00;;;2.80;;
21743;SDS011;11034;48.556;9.342;2024-02-21T02:01:57;12.50;;;2.88;;
21743;SDS011;11034;48.556;9.342;2024-02-21T02:04:27;8.43;;;2.80;;
21743;SDS011;11034;48.556;9.342;2024-02-21T02:06:56;12.43;;;2.80;;
21743;SDS011;11034;48.556;9.342;2024-02-21T02:09:27;11.95;;;2.72;;
21743;SDS011;11034;48.556;9.342;2024-02-21T02:11:55;11.45;;;3.00;;
21743;SDS011;11034;48.556;9.342;2024-02-21T02:14:24;11.55;;;2.42;;
21743;SDS011;11034;48.556;9.342;2024-02-21T02:16:53;10.10;;;2.72;;
21743;SDS011;11034;48.556;9.342;2024-02-21T02:19:22;9.55;;;2.78;;
21743;SDS011;11034;48.556;9.342;2024-02-21T02:21:51;14.88;;;2.90;;
21743;SDS011;11034;48.556;9.342;2024-02-21T02:24:24;10.30;;;3.08;;
21743;SDS011;11034;48.556;9.342;2024-02-21T02:26:53;10.30;;;2.75;;
21743;SDS011;11034;48.556;9.342;2024-02-21T02:29:21;11.52;;;2.58;;
21743;SDS011;11034;48.556;9.342;2024-02-21T02:31:49;10.98;;;3.00;;
21743;SDS011;11034;48.556;9.342;2024-02-21T02:34:17;10.80;;;2.67;;
21743;SDS011;11034;48.556;9.342;2024-02-21T02:36:46;9.43;;;2.40;;
21743;SDS011;11034;48.556;9.342;2024-02-21T02:39:15;10.95;;;2.50;;
21743;SDS011;11034;48.556;9.342;2024-02-21T02:41:45;13.63;;;2.80;;
21743;SDS011;11034;48.556;9.342;2024-02-21T02:44:13;10.13;;;2.83;;
21743;SDS011;11034;48.556;9.342;2024-02-21T02:46:41;10.20;;;2.60;;
21743;SDS011;11034;48.556;9.342;2024-02-21T02:49:09;9.98;;;2.47;;
21743;SDS011;11034;48.556;9.342;2024-02-21T02:51:40;11.25;;;2.60;;
21743;SDS011;11034;48.556;9.342;2024-02-21T02:54:09;9.23;;;2.15;;
21743;SDS011;11034;48.556;9.342;2024-02-21T02:56:38;8.90;;;2.25;;
21743;SDS011;11034;48.556;9.342;2024-02-21T02:59:07;13.57;;;2.55;;
21743;SDS011;11034;48.556;9.342;2024-02-21T03:01:35;10.35;;;2.63;;
21743;SDS011;11034;48.556;9.342;2024-02-21T03:04:04;9.93;;;2.67;;
21743;SDS011;11034;48.556;9.342;2024-02-21T03:06:33;10.07;;;2.50;;
21743;SDS011;11034;48.556;9.342;2024-02-21T03:09:01;10.70;;;3.05;;
21743;SDS011;11034;48.556;9.342;2024-02-21T03:11:35;11.23;;;2.55;;
21743;SDS011;11034;48.556;9.342;2024-02-21T03:14:08;8.23;;;2.28;;
21743;SDS011;11034;48.556;9.342;2024-02-21T03:16:37;7.32;;;2.35;;
21743;SDS011;11034;48.556;9.342;2024-02-21T03:19:05;9.13;;;2.55;;
21743;SDS011;11034;48.556;9.342;2024-02-21T03:21:33;9.50;;;2.38;;
21743;SDS011;11034;48.556;9.342;2024-02-21T03:24:01;11.35;;;2.10;;
21743;SDS011;11034;48.556;9.342;2024-02-21T03:26:29;8.90;;;2.38;;
21743;SDS011;11034;48.556;9.342;2024-02-21T03:28:58;12.75;;;2.78;;
21743;SDS011;11034;48.556;9.342;2024-02-21T03:31:29;10.65;;;2.83;;
21743;SDS011;11034;48.556;9.342;2024-02-21T03:33:58;9.65;;;2.72;;
21743;SDS011;11034;48.556;9.342;2024-02-21T03:36:26;9.23;;;2.08;;
21743;SDS011;11034;48.556;9.342;2024-02-21T03:38:54;8.80;;;2.53;;
21743;SDS011;11034;48.556;9.342;2024-02-21T03:41:22;8.27;;;2.38;;
21743;SDS011;11034;48.556;9.342;2024-02-21T03:43:51;6.95;;;2.78;;
21743;SDS011;11034;48.556;9.342;2024-02-21T03:46:19;7.28;;;2.33;;
21743;SDS011;11034;48.556;9.342;2024-02-21T03:48:49;9.57;;;2.80;;
21743;SDS011;11034;48.556;9.342;2024-02-21T03:51:17;6.72;;;2.75;;
21743;SDS011;11034;48.556;9.342;2024-02-21T03:53:45;11.93;;;2.67;;
21743;SDS011;11034;48.556;9.342;2024-02-21T03:56:13;9.00;;;2.55;;
21743;SDS011;11034;48.556;9.342;2024-02-21T03:58:41;10.52;;;2.65;;
21743;SDS011;11034;48.556;9.342;2024-02-21T04:01:09;9.63;;;2.35;;
21743;SDS011;11034;48.556;9.342;2024-02-21T04:03:37;7.47;;;2.55;;
21743;SDS011;11034;48.556;9.342;2024-02-21T04:06:07;10.18;;;2.55;;
21743;SDS011;11034;48.556;9.342;2024-02-21T04:08:35;11.57;;;2.50;;
21743;SDS011;11034;48.556;9.342;2024-02-21T04:11:03;10.38;;;2.10;;
21743;SDS011;11034;48.556;9.342;2024-02-21T04:13:31;8.65;;;2.28;;
21743;SDS011;11034;48.556;9.342;2024-02-21T04:15:59;10.57;;;2.60;;
21743;SDS011;11034;48.556;9.342;2024-02-21T04:18:28;9.40;;;2.75;;
21743;SDS011;11034;48.556;9.342;2024-02-21T04:20:56;7.43;;;2.08;;
21743;SDS011;11034;48.556;9.342;2024-02-21T04:23:25;8.18;;;2.58;;
21743;SDS011;11034;48.556;9.342;2024-02-21T04:25:53;7.05;;;2.38;;
21743;SDS011;11034;48.556;9.342;2024-02-21T04:28:22;8.93;;;2.60;;
21743;SDS011;11034;48.556;9.342;2024-02-21T04:30:50;9.82;;;3.05;;
21743;SDS011;11034;48.556;9.342;2024-02-21T04:33:18;6.38;;;2.40;;
21743;SDS011;11034;48.556;9.342;2024-02-21T04:35:46;7.32;;;2.17;;
21743;SDS011;11034;48.556;9.342;2024-02-21T04:38:14;13.02;;;2.55;;
21743;SDS011;11034;48.556;9.342;2024-02-21T04:40:43;8.40;;;2.47;;
21743;SDS011;11034;48.556;9.342;2024-02-21T04:43:12;7.68;;;2.40;;
21743;SDS011;11034;48.556;9.342;2024-02-21T04:45:40;6.22;;;2.10;;
21743;SDS011;11034;48.556;9.342;2024-02-21T04:48:08;10.23;;;2.55;;
21743;SDS011;11034;48.556;9.342;2024-02-21T04:50:36;9.52;;;3.13;;
21743;SDS011;11034;48.556;9.342;2024-02-21T04:53:04;9.40;;;2.42;;
21743;SDS011;11034;48.556;9.342;2024-02-21T04:55:32;12.95;;;2.40;;
21743;SDS011;11034;48.556;9.342;2024-02-21T04:58:02;8.77;;;2.13;;
21743;SDS011;11034;48.556;9.342;2024-02-21T05:00:31;7.80;;;2.08;;
21743;SDS011;11034;48.556;9.342;2024-02-21T05:02:59;5.63;;;2.20;;
21743;SDS011;11034;48.556;9.342;2024-02-21T05:05:27;8.18;;;2.47;;
21743;SDS011;11034;48.556;9.342;2024-02-21T05:07:55;6.63;;;1.95;;
21743;SDS011;11034;48.556;9.342;2024-02-21T05:10:24;10.43;;;2.35;;
21743;SDS011;11034;48.556;9.342;2024-02-21T05:12:52;8.60;;;2.10;;
21743;SDS011;11034;48.556;9.342;2024-02-21T05:15:21;8.05;;;2.08;;
21743;SDS011;11034;48.556;9.342;2024-02-21T05:17:49;6.88;;;2.08;;
21743;SDS011;11034;48.556;9.342;2024-02-21T05:20:17;7.88;;;1.65;;
21743;SDS011;11034;48.556;9.342;2024-02-21T05:22:46;9.52;;;2.20;;
21743;SDS011;11034;48.556;9.342;2024-02-21T05:25:14;11.23;;;4.25;;
21743;SDS011;11034;48.556;9.342;2024-02-21T05:27:42;9.32;;;1.95;;
21743;SDS011;11034;48.556;9.342;2024-02-21T05:30:11;8.43;;;2.30;;
21743;SDS011;11034;48.556;9.342;2024-02-21T05:32:41;11.02;;;3.10;;
21743;SDS011;11034;48.556;9.342;2024-02-21T05:35:09;7.07;;;3.05;;
21743;SDS011;11034;48.556;9.342;2024-02-21T05:37:37;9.30;;;3.17;;
21743;SDS011;11034;48.556;9.342;2024-02-21T05:40:06;10.90;;;3.25;;
21743;SDS011;11034;48.556;9.342;2024-02-21T05:42:35;8.23;;;2.60;;
21743;SDS011;11034;48.556;9.342;2024-02-21T05:45:03;7.60;;;3.63;;
21743;SDS011;11034;48.556;9.342;2024-02-21T05:47:32;10.00;;;3.60;;
21743;SDS011;11034;48.556;9.342;2024-02-21T05:50:01;10.57;;;3.40;;
21743;SDS011;11034;48.556;9.342;2024-02-21T05:52:30;10.77;;;3.35;;
21743;SDS011;11034;48.556;9.342;2024-02-21T05:54:58;9.68;;;3.05;;
21743;SDS011;11034;48.556;9.342;2024-02-21T05:57:26;8.13;;;2.28;;
21743;SDS011;11034;48.556;9.342;2024-02-21T05:59:54;6.60;;;2.13;;
21743;SDS011;11034;48.556;9.342;2024-02-21T06:02:22;8.45;;;2.78;;
21743;SDS011;11034;48.556;9.342;2024-02-21T06:04:51;9.07;;;2.35;;
21743;SDS011;11034;48.556;9.342;2024-02-21T06:07:20;10.05;;;2.58;;
21743;SDS011;11034;48.556;9.342;2024-02-21T06:09:48;5.88;;;2.17;;
21743;SDS011;11034;48.556;9.342;2024-02-21T06:12:16;9.80;;;2.33;;
21743;SDS011;11034;48.556;9.342;2024-02-21T06:14:45;10.00;;;2.45;;
21743;SDS011;11034;48.556;9.342;2024-02-21T06:17:16;9.85;;;2.67;;
21743;SDS011;11034;48.556;9.342;2024-02-21T06:20:00;7.80;;;2.38;;
21743;SDS011;11034;48.556;9.342;2024-02-21T06:22:30;9.55;;;2.78;;
21743;SDS011;11034;48.556;9.342;2024-02-21T06:24:58;10.93;;;3.67;;
21743;SDS011;11034;48.556;9.342;2024-02-21T06:27:26;9.93;;;3.45;;
21743;SDS011;11034;48.556;9.342;2024-02-21T06:29:54;10.40;;;2.92;;
21743;SDS011;11034;48.556;9.342;2024-02-21T06:32:22;8.75;;;3.00;;
21743;SDS011;11034;48.556;9.342;2024-02-21T06:34:50;9.18;;;3.10;;
21743;SDS011;11034;48.556;9.342;2024-02-21T06:37:18;6.97;;;2.78;;
21743;SDS011;11034;48.556;9.342;2024-02-21T06:39:56;7.03;;;2.80;;
21743;SDS011;11034;48.556;9.342;2024-02-21T06:42:24;10.15;;;2.83;;
21743;SDS011;11034;48.556;9.342;2024-02-21T06:44:52;11.25;;;2.55;;
21743;SDS011;11034;48.556;9.342;2024-02-21T06:47:21;9.23;;;2.20;;
21743;SDS011;11034;48.556;9.342;2024-02-21T06:49:49;9.68;;;4.00;;
21743;SDS011;11034;48.556;9.342;2024-02-21T06:52:18;13.77;;;5.82;;
21743;SDS011;11034;48.556;9.342;2024-02-21T06:54:47;16.05;;;6.50;;
21743;SDS011;11034;48.556;9.342;2024-02-21T06:57:16;20.83;;;6.15;;
21743;SDS011;11034;48.556;9.342;2024-02-21T06:59:44;15.98;;;6.75;;
21743;SDS011;11034;48.556;9.342;2024-02-21T07:02:14;12.45;;;5.50;;
21743;SDS011;11034;48.556;9.342;2024-02-21T07:04:43;15.27;;;5.72;;
21743;SDS011;11034;48.556;9.342;2024-02-21T07:07:11;20.75;;;8.40;;
21743;SDS011;11034;48.556;9.342;2024-02-21T07:09:39;15.55;;;7.10;;
21743;SDS011;11034;48.556;9.342;2024-02-21T07:12:08;16.02;;;6.38;;
21743;SDS011;11034;48.556;9.342;2024-02-21T07:14:38;12.38;;;5.90;;
21743;SDS011;11034;48.556;9.342;2024-02-21T07:17:06;12.20;;;6.60;;
21743;SDS011;11034;48.556;9.342;2024-02-21T07:19:34;11.40;;;5.13;;
21743;SDS011;11034;48.556;9.342;2024-02-21T07:22:03;15.30;;;4.97;;
21743;SDS011;11034;48.556;9.342;2024-02-21T07:24:31;11.68;;;5.20;;
21743;SDS011;11034;48.556;9.342;2024-02-21T07:26:59;13.40;;;5.20;;
21743;SDS011;11034;48.556;9.342;2024-02-21T07:29:31;13.15;;;4.45;;
21743;SDS011;11034;48.556;9.342;2024-02-21T07:32:00;11.38;;;5.18;;
21743;SDS011;11034;48.556;9.342;2024-02-21T07:34:29;16.42;;;4.95;;
21743;SDS011;11034;48.556;9.342;2024-02-21T07:36:57;15.10;;;5.50;;
21743;SDS011;11034;48.556;9.342;2024-02-21T07:39:25;12.63;;;4.53;;
21743;SDS011;11034;48.556;9.342;2024-02-21T07:41:53;13.65;;;5.35;;
21743;SDS011;11034;48.556;9.342;2024-02-21T07:44:21;9.05;;;2.95;;
21743;SDS011;11034;48.556;9.342;2024-02-21T07:46:52;11.32;;;2.58;;
21743;SDS011;11034;48.556;9.342;2024-02-21T07:49:22;7.65;;;2.60;;
21743;SDS011;11034;48.556;9.342;2024-02-21T07:51:50;12.73;;;2.50;;
21743;SDS011;11034;48.556;9.342;2024-02-21T07:54:19;10.27;;;2.25;;
21743;SDS011;11034;48.556;9.342;2024-02-21T07:56:47;6.13;;;2.15;;
21743;SDS011;11034;48.556;9.342;2024-02-21T07:59:15;6.90;;;2.25;;
21743;SDS011;11034;48.556;9.342;2024-02-21T08:01:44;7.63;;;2.20;;
21743;SDS011;11034;48.556;9.342;2024-02-21T08:04:12;5.32;;;2.10;;
21743;SDS011;11034;48.556;9.342;2024-02-21T08:06:42;8.88;;;2.67;;
21743;SDS011;11034;48.556;9.342;2024-02-21T08:09:11;6.82;;;2.40;;
21743;SDS011;11034;48.556;9.342;2024-02-21T08:11:39;6.20;;;2.20;;
21743;SDS011;11034;48.556;9.342;2024-02-21T08:14:08;6.38;;;2.00;;
21743;SDS011;11034;48.556;9.342;2024-02-21T08:16:36;7.82;;;2.40;;
21743;SDS011;11034;48.556;9.342;2024-02-21T08:19:04;8.57;;;2.30;;
21743;SDS011;11034;48.556;9.342;2024-02-21T08:21:32;9.02;;;2.70;;
21743;SDS011;11034;48.556;9.342;2024-02-21T08:24:04;6.88;;;1.80;;
21743;SDS011;11034;48.556;9.342;2024-02-21T08:26:33;8.73;;;2.20;;
21743;SDS011;11034;48.556;9.342;2024-02-21T08:29:02;6.90;;;2.00;;
21743;SDS011;11034;48.556;9.342;2024-02-21T08:31:30;6.93;;;2.00;;
21743;SDS011;11034;48.556;9.342;2024-02-21T08:33:58;6.22;;;1.95;;
21743;SDS011;11034;48.556;9.342;2024-02-21T08:36:29;7.25;;;1.67;;
21743;SDS011;11034;48.556;9.342;2024-02-21T08:38:59;8.18;;;2.33;;
21743;SDS011;11034;48.556;9.342;2024-02-21T08:41:31;7.53;;;2.00;;
21743;SDS011;11034;48.556;9.342;2024-02-21T08:44:21;7.13;;;2.10;;
21743;SDS011;11034;48.556;9.342;2024-02-21T08:46:50;7.57;;;1.80;;
21743;SDS011;11034;48.556;9.342;2024-02-21T08:49:18;7.55;;;2.15;;
21743;SDS011;11034;48.556;9.342;2024-02-21T08:51:46;5.05;;;1.83;;
21743;SDS011;11034;48.556;9.342;2024-02-21T08:54:15;4.68;;;2.38;;
21743;SDS011;11034;48.556;9.342;2024-02-21T08:56:45;6.68;;;1.98;;
21743;SDS011;11034;48.556;9.342;2024-02-21T08:59:13;5.57;;;1.63;;
21743;SDS011;11034;48.556;9.342;2024-02-21T09:01:41;7.05;;;1.63;;
21743;SDS011;11034;48.556;9.342;2024-02-21T09:04:10;5.40;;;1.80;;
21743;SDS011;11034;48.556;9.342;2024-02-21T09:06:38;6.60;;;1.75;;
21743;SDS011;11034;48.556;9.342;2024-02-21T09:09:08;6.95;;;1.75;;
21743;SDS011;11034;48.556;9.342;2024-02-21T09:11:37;6.40;;;1.70;;
21743;SDS011;11034;48.556;9.342;2024-02-21T09:14:07;6.22;;;1.58;;
21743;SDS011;11034;48.556;9.342;2024-02-21T09:16:36;6.45;;;1.80;;
21743;SDS011;11034;48.556;9.342;2024-02-21T09:19:04;6.60;;;1.70;;
21743;SDS011;11034;48.556;9.342;2024-02-21T09:21:32;6.55;;;1.75;;
21743;SDS011;11034;48.556;9.342;2024-02-21T09:24:00;4.13;;;1.63;;
21743;SDS011;11034;48.556;9.342;2024-02-21T09:26:28;5.03;;;1.90;;
21743;SDS011;11034;48.556;9.342;2024-02-21T09:28:56;8.38;;;2.22;;
21743;SDS011;11034;48.556;9.342;2024-02-21T09:31:26;9.07;;;2.30;;
21743;SDS011;11034;48.556;9.342;2024-02-21T09:33:54;8.90;;;2.55;;
21743;SDS011;11034;48.556;9.342;2024-02-21T09:36:22;11.80;;;4.35;;
21743;SDS011;11034;48.556;9.342;2024-02-21T09:38:51;13.65;;;5.47;;
21743;SDS011;11034;48.556;9.342;2024-02-21T09:41:22;12.75;;;5.38;;
21743;SDS011;11034;48.556;9.342;2024-02-21T09:43:54;9.65;;;5.03;;
21743;SDS011;11034;48.556;9.342;2024-02-21T09:46:24;13.50;;;4.78;;
21743;SDS011;11034;48.556;9.342;2024-02-21T09:49:04;12.90;;;5.38;;
21743;SDS011;11034;48.556;9.342;2024-02-21T09:51:41;6.28;;;3.63;;
21743;SDS011;11034;48.556;9.342;2024-02-21T09:54:11;8.43;;;3.38;;
21743;SDS011;11034;48.556;9.342;2024-02-21T09:56:44;6.90;;;2.17;;
21743;SDS011;11034;48.556;9.342;2024-02-21T09:59:13;9.73;;;4.20;;
21743;SDS011;11034;48.556;9.342;2024-02-21T10:01:44;11.48;;;3.90;;
21743;SDS011;11034;48.556;9.342;2024-02-21T10:04:14;12.15;;;4.25;;
21743;SDS011;11034;48.556;9.342;2024-02-21T10:06:42;12.32;;;3.42;;
21743;SDS011;11034;48.556;9.342;2024-02-21T10:09:19;8.93;;;3.50;;
21743;SDS011;11034;48.556;9.342;2024-02-21T10:11:50;7.97;;;3.40;;
21743;SDS011;11034;48.556;9.342;2024-02-21T10:14:18;11.43;;;4.07;;
21743;SDS011;11034;48.556;9.342;2024-02-21T10:16:48;11.18;;;3.20;;
21743;SDS011;11034;48.556;9.342;2024-02-21T10:19:24;8.30;;;3.58;;
21743;SDS011;11034;48.556;9.342;2024-02-21T10:21:59;8.68;;;3.83;;
21743;SDS011;11034;48.556;9.342;2024-02-21T10:24:30;16.80;;;4.25;;
21743;SDS011;11034;48.556;9.342;2024-02-21T10:26:59;13.57;;;4.35;;
21743;SDS011;11034;48.556;9.342;2024-02-21T10:29:30;10.82;;;4.45;;
21743;SDS011;11034;48.556;9.342;2024-02-21T10:32:06;11.90;;;3.60;;
21743;SDS011;11034;48.556;9.342;2024-02-21T10:34:36;12.68;;;4.40;;
21743;SDS011;11034;48.556;9.342;2024-02-21T10:37:06;19.48;;;8.50;;
21743;SDS011;11034;48.556;9.342;2024-02-21T10:39:35;9.82;;;3.78;;
21743;SDS011;11034;48.556;9.342;2024-02-21T10:42:07;11.65;;;4.03;;
21743;SDS011;11034;48.556;9.342;2024-02-21T10:44:39;9.32;;;4.03;;
21743;SDS011;11034;48.556;9.342;2024-02-21T10:47:11;8.10;;;3.67;;
21743;SDS011;11034;48.556;9.342;2024-02-21T10:49:46;9.00;;;3.95;;
21743;SDS011;11034;48.556;9.342;2024-02-21T10:52:22;10.27;;;3.83;;
21743;SDS011;11034;48.556;9.342;2024-02-21T10:54:58;8.57;;;3.72;;
21743;SDS011;11034;48.556;9.342;2024-02-21T10:57:31;11.65;;;4.10;;
21743;SDS011;11034;48.556;9.342;2024-02-21T10:59:59;8.20;;;3.60;;
21743;SDS011;11034;48.556;9.342;2024-02-21T11:02:31;9.50;;;3.88;;
21743;SDS011;11034;48.556;9.342;2024-02-21T11:05:01;9.73;;;3.83;;
21743;SDS011;11034;48.556;9.342;2024-02-21T11:07:31;10.48;;;3.63;;
21743;SDS011;11034;48.556;9.342;2024-02-21T11:10:04;8.27;;;4.05;;
21743;SDS011;11034;48.556;9.342;2024-02-21T11:12:34;18.52;;;9.13;;
21743;SDS011;11034;48.556;9.342;2024-02-21T11:15:05;7.88;;;3.40;;
21743;SDS011;11034;48.556;9.342;2024-02-21T11:17:35;7.35;;;3.25;;
21743;SDS011;11034;48.556;9.342;2024-02-21T11:20:15;8.20;;;3.10;;
21743;SDS011;11034;48.556;9.342;2024-02-21T11:22:44;6.90;;;3.20;;
21743;SDS011;11034;48.556;9.342;2024-02-21T11:25:21;8.00;;;3.00;;
21743;SDS011;11034;48.556;9.342;2024-02-21T11:27:50;7.68;;;3.13;;
21743;SDS011;11034;48.556;9.342;2024-02-21T11:30:27;10.45;;;3.47;;
21743;SDS011;11034;48.556;9.342;2024-02-21T11:33:01;7.55;;;3.00;;
21743;SDS011;11034;48.556;9.342;2024-02-21T11:35:31;12.82;;;3.40;;
21743;SDS011;11034;48.556;9.342;2024-02-21T11:38:07;8.95;;;3.08;;
21743;SDS011;11034;48.556;9.342;2024-02-21T11:40:38;7.63;;;2.97;;
21743;SDS011;11034;48.556;9.342;2024-02-21T11:43:08;6.43;;;2.70;;
21743;SDS011;11034;48.556;9.342;2024-02-21T11:45:45;8.10;;;2.75;;
21743;SDS011;11034;48.556;9.342;2024-02-21T11:51:49;8.63;;;3.13;;
21743;SDS011;11034;48.556;9.342;2024-02-21T11:54:38;5.93;;;2.90;;
21743;SDS011;11034;48.556;9.342;2024-02-21T11:57:06;6.28;;;3.15;;
21743;SDS011;11034;48.556;9.342;2024-02-21T11:59:44;9.07;;;3.42;;
21743;SDS011;11034;48.556;9.342;2024-02-21T12:02:13;11.48;;;3.42;;
21743;SDS011;11034;48.556;9.342;2024-02-21T12:04:41;11.82;;;3.47;;
21743;SDS011;11034;48.556;9.342;2024-02-21T12:07:12;8.50;;;2.83;;
21743;SDS011;11034;48.556;9.342;2024-02-21T12:09:42;10.15;;;2.88;;
21743;SDS011;11034;48.556;9.342;2024-02-21T12:12:10;8.68;;;3.20;;
21743;SDS011;11034;48.556;9.342;2024-02-21T12:14:38;8.27;;;3.25;;
21743;SDS011;11034;48.556;9.342;2024-02-21T12:17:06;9.52;;;3.30;;
21743;SDS011;11034;48.556;9.342;2024-02-21T12:19:35;12.20;;;2.88;;
21743;SDS011;11034;48.556;9.342;2024-02-21T12:22:03;7.15;;;2.78;;
21743;SDS011;11034;48.556;9.342;2024-02-21T12:24:34;6.05;;;2.95;;
21743;SDS011;11034;48.556;9.342;2024-02-21T12:27:05;8.10;;;3.10;;
21743;SDS011;11034;48.556;9.342;2024-02-21T12:29:33;6.90;;;2.20;;
21743;SDS011;11034;48.556;9.342;2024-02-21T12:32:05;6.47;;;2.25;;
21743;SDS011;11034;48.556;9.342;2024-02-21T12:34:33;5.13;;;2.17;;
21743;SDS011;11034;48.556;9.342;2024-02-21T12:37:18;11.80;;;2.70;;
21743;SDS011;11034;48.556;9.342;2024-02-21T12:39:49;7.25;;;2.70;;
21743;SDS011;11034;48.556;9.342;2024-02-21T12:42:20;7.97;;;2.47;;
21743;SDS011;11034;48.556;9.342;2024-02-21T12:44:50;7.65;;;2.35;;
21743;SDS011;11034;48.556;9.342;2024-02-21T12:47:19;6.45;;;2.70;;
21743;SDS011;11034;48.556;9.342;2024-02-21T12:49:50;5.78;;;2.80;;
21743;SDS011;11034;48.556;9.342;2024-02-21T12:52:18;9.25;;;3.30;;
21743;SDS011;11034;48.556;9.342;2024-02-21T12:54:46;5.25;;;2.35;;
21743;SDS011;11034;48.556;9.342;2024-02-21T12:57:18;7.10;;;2.70;;
21743;SDS011;11034;48.556;9.342;2024-02-21T12:59:49;6.88;;;2.90;;
21743;SDS011;11034;48.556;9.342;2024-02-21T13:02:17;6.85;;;2.88;;
21743;SDS011;11034;48.556;9.342;2024-02-21T13:04:46;8.70;;;3.00;;
21743;SDS011;11034;48.556;9.342;2024-02-21T13:07:15;8.88;;;3.33;;
21743;SDS011;11034;48.556;9.342;2024-02-21T13:09:43;5.20;;;3.03;;
21743;SDS011;11034;48.556;9.342;2024-02-21T13:12:15;5.80;;;3.10;;
21743;SDS011;11034;48.556;9.342;2024-02-21T13:14:43;9.45;;;3.35;;
21743;SDS011;11034;48.556;9.342;2024-02-21T13:17:12;10.15;;;2.97;;
21743;SDS011;11034;48.556;9.342;2024-02-21T13:19:41;5.18;;;2.58;;
21743;SDS011;11034;48.556;9.342;2024-02-21T13:22:09;6.25;;;3.00;;
21743;SDS011;11034;48.556;9.342;2024-02-21T13:24:38;9.65;;;3.35;;
21743;SDS011;11034;48.556;9.342;2024-02-21T13:27:06;6.78;;;2.72;;
21743;SDS011;11034;48.556;9.342;2024-02-21T13:29:35;9.93;;;3.90;;
21743;SDS011;11034;48.556;9.342;2024-02-21T13:32:04;9.40;;;3.72;;
21743;SDS011;11034;48.556;9.342;2024-02-21T13:34:33;8.30;;;3.30;;
21743;SDS011;11034;48.556;9.342;2024-02-21T13:37:01;9.93;;;3.00;;
21743;SDS011;11034;48.556;9.342;2024-02-21T13:39:31;11.07;;;3.58;;
21743;SDS011;11034;48.556;9.342;2024-02-21T13:42:01;8.27;;;2.55;;
21743;SDS011;11034;48.556;9.342;2024-02-21T13:44:33;8.75;;;2.97;;
21743;SDS011;11034;48.556;9.342;2024-02-21T13:47:02;7.03;;;3.03;;
21743;SDS011;11034;48.556;9.342;2024-02-21T13:49:31;4.90;;;2.38;;
21743;SDS011;11034;48.556;9.342;2024-02-21T13:51:59;9.90;;;2.45;;
21743;SDS011;11034;48.556;9.342;2024-02-21T13:54:27;5.88;;;2.67;;
21743;SDS011;11034;48.556;9.342;2024-02-21T13:56:55;10.25;;;3.10;;
21743;SDS011;11034;48.556;9.342;2024-02-21T13:59:23;7.63;;;2.83;;
21743;SDS011;11034;48.556;9.342;2024-02-21T14:01:52;5.85;;;2.47;;
21743;SDS011;11034;48.556;9.342;2024-02-21T14:04:22;11.63;;;2.67;;
21743;SDS011;11034;48.556;9.342;2024-02-21T14:06:50;7.80;;;2.33;;
21743;SDS011;11034;48.556;9.342;2024-02-21T14:09:19;6.45;;;2.50;;
21743;SDS011;11034;48.556;9.342;2024-02-21T14:11:47;6.70;;;2.20;;
21743;SDS011;11034;48.556;9.342;2024-02-21T14:14:16;6.88;;;2.33;;
21743;SDS011;11034;48.556;9.342;2024-02-21T14:16:44;6.53;;;2.38;;
21743;SDS011;11034;48.556;9.342;2024-02-21T14:19:14;7.28;;;2.58;;
21743;SDS011;11034;48.556;9.342;2024-02-21T14:21:43;7.43;;;2.70;;
21743;SDS011;11034;48.556;9.342;2024-02-21T14:24:12;8.77;;;2.50;;
21743;SDS011;11034;48.556;9.342;2024-02-21T14:26:40;6.60;;;2.55;;
21743;SDS011;11034;48.556;9.342;2024-02-21T14:29:08;7.93;;;2.90;;
21743;SDS011;11034;48.556;9.342;2024-02-21T14:31:37;7.15;;;2.80;;
21743;SDS011;11034;48.556;9.342;2024-02-21T14:34:05;5.30;;;2.58;;
21743;SDS011;11034;48.556;9.342;2024-02-21T14:36:34;8.63;;;2.65;;
21743;SDS011;11034;48.556;9.342;2024-02-21T14:39:04;6.05;;;2.72;;
21743;SDS011;11034;48.556;9.342;2024-02-21T14:41:32;7.45;;;2.75;;
21743;SDS011;11034;48.556;9.342;2024-02-21T14:44:01;7.03;;;2.85;;
21743;SDS011;11034;48.556;9.342;2024-02-21T14:46:30;8.07;;;3.17;;
21743;SDS011;11034;48.556;9.342;2024-02-21T14:48:59;7.25;;;3.10;;
21743;SDS011;11034;48.556;9.342;2024-02-21T14:51:27;8.77;;;3.30;;
21743;SDS011;11034;48.556;9.342;2024-02-21T14:53:57;9.05;;;3.35;;
21743;SDS011;11034;48.556;9.342;2024-02-21T14:56:27;8.15;;;3.40;;
21743;SDS011;11034;48.556;9.342;2024-02-21T14:58:56;7.15;;;2.90;;